sensor_id;sensor_type;location;lat;lon;timestamp;P1;durP1;ratioP1;P2;durP2;ratioP2
85668;SDS011;76101;44.794;10.344;2024-03-23T01:10:31;11.35;;;5.63;;
85668;SDS011;76101;44.794;10.344;2024-03-23T01:13:31;11.53;;;5.63;;
85668;SDS011;76101;44.794;10.344;2024-03-23T01:16:32;10.73;;;5.78;;
85668;SDS011;76101;44.794;10.344;2024-03-23T01:19:47;9.98;;;5.20;;
85668;SDS011;76101;44.794;10.344;2024-03-23T01:22:48;10.40;;;5.30;;
85668;SDS011;76101;44.794;10.344;2024-03-23T01:44:49;11.40;;;5.63;;
85668;SDS011;76101;44.794;10.344;2024-03-23T01:47:52;9.80;;;5.38;;
85668;SDS011;76101;44.794;10.344;2024-03-23T01:50:55;12.70;;;5.63;;
85668;SDS011;76101;44.794;10.344;2024-03-23T01:53:55;10.43;;;5.05;;
85668;SDS011;76101;44.794;10.344;2024-03-23T01:59:58;9.93;;;4.65;;
85668;SDS011;76101;44.794;10.344;2024-03-23T02:02:59;10.00;;;4.70;;
85668;SDS011;76101;44.794;10.344;2024-03-23T02:05:59;9.40;;;4.70;;
85668;SDS011;76101;44.794;10.344;2024-03-23T02:09:00;9.18;;;4.95;;
85668;SDS011;76101;44.794;10.344;2024-03-23T02:12:04;11.32;;;5.35;;
85668;SDS011;76101;44.794;10.344;2024-03-23T02:15:05;9.63;;;4.60;;
85668;SDS011;76101;44.794;10.344;2024-03-23T02:18:07;8.63;;;4.20;;
85668;SDS011;76101;44.794;10.344;2024-03-23T02:21:08;8.90;;;4.28;;
85668;SDS011;76101;44.794;10.344;2024-03-23T02:24:08;8.23;;;4.10;;
85668;SDS011;76101;44.794;10.344;2024-03-23T02:27:08;8.07;;;4.10;;
85668;SDS011;76101;44.794;10.344;2024-03-23T02:30:09;9.63;;;4.23;;
85668;SDS011;76101;44.794;10.344;2024-03-23T02:33:09;10.43;;;4.30;;
85668;SDS011;76101;44.794;10.344;2024-03-23T02:36:10;9.15;;;4.38;;
85668;SDS011;76101;44.794;10.344;2024-03-23T02:39:10;10.07;;;4.30;;
85668;SDS011;76101;44.794;10.344;2024-03-23T02:42:11;9.65;;;3.92;;
85668;SDS011;76101;44.794;10.344;2024-03-23T02:45:11;8.60;;;4.10;;
85668;SDS011;76101;44.794;10.344;2024-03-23T02:48:12;8.82;;;4.18;;
85668;SDS011;76101;44.794;10.344;2024-03-23T02:51:12;8.65;;;3.88;;
85668;SDS011;76101;44.794;10.344;2024-03-23T02:54:12;8.30;;;4.00;;
85668;SDS011;76101;44.794;10.344;2024-03-23T02:57:13;8.50;;;3.88;;
85668;SDS011;76101;44.794;10.344;2024-03-23T03:00:13;8.40;;;3.78;;
85668;SDS011;76101;44.794;10.344;2024-03-23T03:03:13;7.85;;;3.80;;
85668;SDS011;76101;44.794;10.344;2024-03-23T03:06:22;8.30;;;3.78;;
85668;SDS011;76101;44.794;10.344;2024-03-23T03:09:26;8.73;;;4.00;;
85668;SDS011;76101;44.794;10.344;2024-03-23T03:12:26;10.15;;;4.07;;
85668;SDS011;76101;44.794;10.344;2024-03-23T03:15:27;8.00;;;3.90;;
85668;SDS011;76101;44.794;10.344;2024-03-23T03:18:27;7.53;;;3.60;;
85668;SDS011;76101;44.794;10.344;2024-03-23T03:21:27;9.33;;;4.13;;
85668;SDS011;76101;44.794;10.344;2024-03-23T03:24:28;7.85;;;3.75;;
85668;SDS011;76101;44.794;10.344;2024-03-23T03:27:28;8.07;;;3.77;;
85668;SDS011;76101;44.794;10.344;2024-03-23T03:30:29;7.50;;;3.37;;
85668;SDS011;76101;44.794;10.344;2024-03-23T03:33:29;8.10;;;3.50;;
85668;SDS011;76101;44.794;10.344;2024-03-23T03:36:29;7.03;;;3.30;;
85668;SDS011;76101;44.794;10.344;2024-03-23T03:39:30;7.97;;;3.20;;
85668;SDS011;76101;44.794;10.344;2024-03-23T03:42:30;6.27;;;2.80;;
85668;SDS011;76101;44.794;10.344;2024-03-23T03:45:30;8.50;;;3.43;;
85668;SDS011;76101;44.794;10.344;2024-03-23T03:48:31;7.87;;;3.20;;
85668;SDS011;76101;44.794;10.344;2024-03-23T03:51:31;9.63;;;3.30;;
85668;SDS011;76101;44.794;10.344;2024-03-23T03:54:32;9.50;;;3.83;;
85668;SDS011;76101;44.794;10.344;2024-03-23T03:57:33;9.00;;;4.05;;
85668;SDS011;76101;44.794;10.344;2024-03-23T04:00:33;10.60;;;4.00;;
85668;SDS011;76101;44.794;10.344;2024-03-23T04:03:34;8.93;;;4.10;;
85668;SDS011;76101;44.794;10.344;2024-03-23T04:06:34;7.93;;;3.50;;
85668;SDS011;76101;44.794;10.344;2024-03-23T04:09:35;8.65;;;4.20;;
85668;SDS011;76101;44.794;10.344;2024-03-23T04:12:35;10.10;;;4.33;;
85668;SDS011;76101;44.794;10.344;2024-03-23T04:15:36;8.93;;;3.83;;
85668;SDS011;76101;44.794;10.344;2024-03-23T04:18:36;9.43;;;4.53;;
85668;SDS011;76101;44.794;10.344;2024-03-23T04:21:40;10.68;;;4.38;;
85668;SDS011;76101;44.794;10.344;2024-03-23T04:27:51;11.50;;;4.70;;
85668;SDS011;76101;44.794;10.344;2024-03-23T04:31:04;10.70;;;4.53;;
85668;SDS011;76101;44.794;10.344;2024-03-23T04:34:04;9.75;;;4.70;;
85668;SDS011;76101;44.794;10.344;2024-03-23T04:37:05;10.82;;;5.18;;
85668;SDS011;76101;44.794;10.344;2024-03-23T04:40:06;10.10;;;4.70;;
85668;SDS011;76101;44.794;10.344;2024-03-23T04:46:07;10.82;;;6.03;;
85668;SDS011;76101;44.794;10.344;2024-03-23T04:49:08;11.47;;;5.13;;
85668;SDS011;76101;44.794;10.344;2024-03-23T04:52:09;10.73;;;4.97;;
85668;SDS011;76101;44.794;10.344;2024-03-23T04:55:10;12.55;;;4.80;;
85668;SDS011;76101;44.794;10.344;2024-03-23T05:01:12;9.47;;;4.80;;
85668;SDS011;76101;44.794;10.344;2024-03-23T05:04:12;10.50;;;4.40;;
85668;SDS011;76101;44.794;10.344;2024-03-23T05:07:12;9.30;;;4.80;;
85668;SDS011;76101;44.794;10.344;2024-03-23T05:10:13;9.43;;;4.63;;
85668;SDS011;76101;44.794;10.344;2024-03-23T05:13:13;10.63;;;4.85;;
85668;SDS011;76101;44.794;10.344;2024-03-23T05:16:13;9.80;;;4.77;;
85668;SDS011;76101;44.794;10.344;2024-03-23T05:19:14;9.93;;;5.05;;
85668;SDS011;76101;44.794;10.344;2024-03-23T05:22:14;9.75;;;4.90;;
85668;SDS011;76101;44.794;10.344;2024-03-23T05:25:15;9.60;;;4.70;;
85668;SDS011;76101;44.794;10.344;2024-03-23T05:28:16;10.82;;;4.50;;
85668;SDS011;76101;44.794;10.344;2024-03-23T05:31:23;10.03;;;4.87;;
85668;SDS011;76101;44.794;10.344;2024-03-23T05:34:27;13.13;;;5.10;;
85668;SDS011;76101;44.794;10.344;2024-03-23T05:37:29;10.68;;;4.60;;
85668;SDS011;76101;44.794;10.344;2024-03-23T05:40:31;13.30;;;5.30;;
85668;SDS011;76101;44.794;10.344;2024-03-23T05:43:31;9.98;;;4.90;;
85668;SDS011;76101;44.794;10.344;2024-03-23T05:46:32;12.20;;;5.18;;
85668;SDS011;76101;44.794;10.344;2024-03-23T05:49:33;14.00;;;4.60;;
85668;SDS011;76101;44.794;10.344;2024-03-23T05:52:33;16.73;;;5.85;;
85668;SDS011;76101;44.794;10.344;2024-03-23T05:55:33;13.40;;;5.70;;
85668;SDS011;76101;44.794;10.344;2024-03-23T05:58:34;13.83;;;6.00;;
85668;SDS011;76101;44.794;10.344;2024-03-23T06:01:34;11.48;;;5.82;;
85668;SDS011;76101;44.794;10.344;2024-03-23T06:04:35;16.30;;;6.87;;
85668;SDS011;76101;44.794;10.344;2024-03-23T06:07:35;15.80;;;7.47;;
85668;SDS011;76101;44.794;10.344;2024-03-23T06:10:36;14.90;;;7.37;;
85668;SDS011;76101;44.794;10.344;2024-03-23T06:13:36;13.63;;;6.93;;
85668;SDS011;76101;44.794;10.344;2024-03-23T06:16:36;15.27;;;7.40;;
85668;SDS011;76101;44.794;10.344;2024-03-23T06:19:37;16.87;;;7.30;;
85668;SDS011;76101;44.794;10.344;2024-03-23T06:22:37;16.77;;;7.72;;
85668;SDS011;76101;44.794;10.344;2024-03-23T06:25:37;17.70;;;8.68;;
85668;SDS011;76101;44.794;10.344;2024-03-23T06:28:41;17.85;;;8.48;;
85668;SDS011;76101;44.794;10.344;2024-03-23T06:31:42;15.98;;;8.48;;
85668;SDS011;76101;44.794;10.344;2024-03-23T06:34:42;15.20;;;8.00;;
85668;SDS011;76101;44.794;10.344;2024-03-23T06:37:42;16.77;;;7.70;;
85668;SDS011;76101;44.794;10.344;2024-03-23T06:40:43;15.60;;;7.85;;
85668;SDS011;76101;44.794;10.344;2024-03-23T06:43:47;18.00;;;8.30;;
85668;SDS011;76101;44.794;10.344;2024-03-23T06:46:47;14.87;;;7.17;;
85668;SDS011;76101;44.794;10.344;2024-03-23T06:49:49;16.02;;;8.05;;
85668;SDS011;76101;44.794;10.344;2024-03-23T06:52:49;16.27;;;7.70;;
85668;SDS011;76101;44.794;10.344;2024-03-23T06:55:50;16.35;;;8.20;;
85668;SDS011;76101;44.794;10.344;2024-03-23T06:58:56;15.00;;;7.45;;
85668;SDS011;76101;44.794;10.344;2024-03-23T07:01:57;18.23;;;8.23;;
85668;SDS011;76101;44.794;10.344;2024-03-23T07:04:57;16.67;;;8.20;;
85668;SDS011;76101;44.794;10.344;2024-03-23T07:07:58;17.83;;;8.00;;
85668;SDS011;76101;44.794;10.344;2024-03-23T07:10:58;15.93;;;8.20;;
85668;SDS011;76101;44.794;10.344;2024-03-23T07:13:58;16.90;;;8.37;;
85668;SDS011;76101;44.794;10.344;2024-03-23T07:16:59;18.67;;;8.45;;
85668;SDS011;76101;44.794;10.344;2024-03-23T07:19:59;19.20;;;9.98;;
85668;SDS011;76101;44.794;10.344;2024-03-23T07:23:01;20.15;;;11.18;;
85668;SDS011;76101;44.794;10.344;2024-03-23T07:26:03;22.33;;;11.73;;
85668;SDS011;76101;44.794;10.344;2024-03-23T07:29:05;22.92;;;12.05;;
85668;SDS011;76101;44.794;10.344;2024-03-23T07:32:06;22.20;;;11.32;;
85668;SDS011;76101;44.794;10.344;2024-03-23T07:35:06;11.57;;;5.43;;
85668;SDS011;76101;44.794;10.344;2024-03-23T07:38:07;8.93;;;4.13;;
85668;SDS011;76101;44.794;10.344;2024-03-23T07:41:10;9.57;;;3.50;;
85668;SDS011;76101;44.794;10.344;2024-03-23T07:44:17;7.57;;;3.33;;
85668;SDS011;76101;44.794;10.344;2024-03-23T07:47:17;10.00;;;3.20;;
85668;SDS011;76101;44.794;10.344;2024-03-23T07:50:17;7.17;;;2.90;;
85668;SDS011;76101;44.794;10.344;2024-03-23T07:53:18;7.77;;;2.57;;
85668;SDS011;76101;44.794;10.344;2024-03-23T07:56:18;6.13;;;2.80;;
85668;SDS011;76101;44.794;10.344;2024-03-23T07:59:19;7.07;;;2.72;;
85668;SDS011;76101;44.794;10.344;2024-03-23T08:02:20;6.63;;;2.77;;
85668;SDS011;76101;44.794;10.344;2024-03-23T08:05:20;8.07;;;2.90;;
85668;SDS011;76101;44.794;10.344;2024-03-23T08:08:21;7.15;;;2.58;;
85668;SDS011;76101;44.794;10.344;2024-03-23T08:11:21;6.97;;;3.30;;
85668;SDS011;76101;44.794;10.344;2024-03-23T08:14:22;9.80;;;3.07;;
85668;SDS011;76101;44.794;10.344;2024-03-23T08:17:25;8.37;;;2.80;;
85668;SDS011;76101;44.794;10.344;2024-03-23T08:20:25;6.18;;;2.58;;
85668;SDS011;76101;44.794;10.344;2024-03-23T08:23:27;6.32;;;2.58;;
85668;SDS011;76101;44.794;10.344;2024-03-23T08:26:29;7.53;;;2.95;;
85668;SDS011;76101;44.794;10.344;2024-03-23T08:29:29;6.53;;;2.63;;
85668;SDS011;76101;44.794;10.344;2024-03-23T08:32:30;7.30;;;3.10;;
85668;SDS011;76101;44.794;10.344;2024-03-23T08:35:30;6.53;;;2.50;;
85668;SDS011;76101;44.794;10.344;2024-03-23T08:38:30;6.83;;;2.60;;
85668;SDS011;76101;44.794;10.344;2024-03-23T08:41:31;6.72;;;2.60;;
85668;SDS011;76101;44.794;10.344;2024-03-23T08:44:32;6.65;;;2.60;;
85668;SDS011;76101;44.794;10.344;2024-03-23T08:47:34;11.02;;;5.80;;
85668;SDS011;76101;44.794;10.344;2024-03-23T08:50:35;6.53;;;2.60;;
85668;SDS011;76101;44.794;10.344;2024-03-23T08:53:36;9.83;;;3.80;;
85668;SDS011;76101;44.794;10.344;2024-03-23T08:56:36;8.77;;;3.50;;
85668;SDS011;76101;44.794;10.344;2024-03-23T08:59:37;9.50;;;3.97;;
85668;SDS011;76101;44.794;10.344;2024-03-23T09:02:37;9.57;;;4.53;;
85668;SDS011;76101;44.794;10.344;2024-03-23T09:05:41;18.33;;;8.90;;
85668;SDS011;76101;44.794;10.344;2024-03-23T09:08:42;19.23;;;9.68;;
85668;SDS011;76101;44.794;10.344;2024-03-23T09:11:42;18.88;;;10.73;;
85668;SDS011;76101;44.794;10.344;2024-03-23T09:14:43;17.45;;;10.15;;
85668;SDS011;76101;44.794;10.344;2024-03-23T09:17:43;22.47;;;12.03;;
85668;SDS011;76101;44.794;10.344;2024-03-23T09:20:43;23.60;;;13.03;;
85668;SDS011;76101;44.794;10.344;2024-03-23T09:23:44;26.25;;;14.90;;
85668;SDS011;76101;44.794;10.344;2024-03-23T09:26:45;27.55;;;15.65;;
85668;SDS011;76101;44.794;10.344;2024-03-23T09:29:48;28.90;;;15.75;;
85668;SDS011;76101;44.794;10.344;2024-03-23T09:32:50;33.63;;;17.37;;
85668;SDS011;76101;44.794;10.344;2024-03-23T09:35:51;28.48;;;16.35;;
85668;SDS011;76101;44.794;10.344;2024-03-23T09:38:51;30.23;;;15.53;;
85668;SDS011;76101;44.794;10.344;2024-03-23T09:41:56;25.58;;;14.57;;
85668;SDS011;76101;44.794;10.344;2024-03-23T09:44:57;30.23;;;17.05;;
85668;SDS011;76101;44.794;10.344;2024-03-23T09:47:58;30.60;;;17.52;;
85668;SDS011;76101;44.794;10.344;2024-03-23T09:50:59;30.57;;;16.10;;
85668;SDS011;76101;44.794;10.344;2024-03-23T09:53:59;26.77;;;15.52;;
85668;SDS011;76101;44.794;10.344;2024-03-23T09:56:59;28.80;;;16.33;;
85668;SDS011;76101;44.794;10.344;2024-03-23T10:00:00;32.20;;;16.98;;
85668;SDS011;76101;44.794;10.344;2024-03-23T10:03:01;34.97;;;18.40;;
85668;SDS011;76101;44.794;10.344;2024-03-23T10:06:05;36.10;;;20.13;;
85668;SDS011;76101;44.794;10.344;2024-03-23T10:09:16;35.13;;;19.85;;
85668;SDS011;76101;44.794;10.344;2024-03-23T10:12:18;36.67;;;19.98;;
85668;SDS011;76101;44.794;10.344;2024-03-23T10:15:20;36.08;;;19.35;;
85668;SDS011;76101;44.794;10.344;2024-03-23T10:18:23;37.97;;;20.60;;
85668;SDS011;76101;44.794;10.344;2024-03-23T10:21:24;32.88;;;18.73;;
85668;SDS011;76101;44.794;10.344;2024-03-23T10:24:25;34.20;;;17.83;;
85668;SDS011;76101;44.794;10.344;2024-03-23T10:27:25;33.50;;;17.80;;
85668;SDS011;76101;44.794;10.344;2024-03-23T10:30:26;33.47;;;16.53;;
85668;SDS011;76101;44.794;10.344;2024-03-23T10:33:27;32.35;;;17.02;;
85668;SDS011;76101;44.794;10.344;2024-03-23T10:36:28;33.53;;;18.38;;
85668;SDS011;76101;44.794;10.344;2024-03-23T10:39:37;32.25;;;17.40;;
85668;SDS011;76101;44.794;10.344;2024-03-23T10:42:39;33.47;;;19.02;;
85668;SDS011;76101;44.794;10.344;2024-03-23T10:45:40;33.22;;;16.95;;
85668;SDS011;76101;44.794;10.344;2024-03-23T10:48:40;30.75;;;15.52;;
85668;SDS011;76101;44.794;10.344;2024-03-23T10:51:41;30.80;;;16.27;;
85668;SDS011;76101;44.794;10.344;2024-03-23T10:54:42;31.70;;;16.45;;
85668;SDS011;76101;44.794;10.344;2024-03-23T10:57:51;31.00;;;16.52;;
85668;SDS011;76101;44.794;10.344;2024-03-23T11:00:54;27.10;;;14.60;;
85668;SDS011;76101;44.794;10.344;2024-03-23T11:03:58;30.50;;;16.80;;
85668;SDS011;76101;44.794;10.344;2024-03-23T11:06:58;28.63;;;15.30;;
85668;SDS011;76101;44.794;10.344;2024-03-23T11:09:59;25.15;;;14.23;;
85668;SDS011;76101;44.794;10.344;2024-03-23T11:13:21;26.08;;;14.48;;
85668;SDS011;76101;44.794;10.344;2024-03-23T11:16:23;10.65;;;4.65;;
85668;SDS011;76101;44.794;10.344;2024-03-23T11:19:37;8.68;;;3.00;;
85668;SDS011;76101;44.794;10.344;2024-03-23T11:22:42;11.50;;;2.88;;
85668;SDS011;76101;44.794;10.344;2024-03-23T11:25:43;9.95;;;3.47;;
85668;SDS011;76101;44.794;10.344;2024-03-23T11:28:44;10.40;;;3.15;;
85668;SDS011;76101;44.794;10.344;2024-03-23T11:31:51;7.73;;;2.67;;
85668;SDS011;76101;44.794;10.344;2024-03-23T11:34:52;10.18;;;3.40;;
85668;SDS011;76101;44.794;10.344;2024-03-23T11:41:19;9.77;;;2.67;;
85668;SDS011;76101;44.794;10.344;2024-03-23T11:44:20;10.25;;;2.92;;
85668;SDS011;76101;44.794;10.344;2024-03-23T11:47:24;8.27;;;2.38;;
85668;SDS011;76101;44.794;10.344;2024-03-23T11:50:24;8.50;;;2.40;;
85668;SDS011;76101;44.794;10.344;2024-03-23T11:53:25;6.27;;;2.27;;
85668;SDS011;76101;44.794;10.344;2024-03-23T11:56:28;6.85;;;2.42;;
85668;SDS011;76101;44.794;10.344;2024-03-23T11:59:32;10.17;;;2.30;;
85668;SDS011;76101;44.794;10.344;2024-03-23T12:02:41;7.97;;;2.42;;
85668;SDS011;76101;44.794;10.344;2024-03-23T12:05:42;7.27;;;2.20;;
85668;SDS011;76101;44.794;10.344;2024-03-23T12:08:50;8.00;;;2.50;;
85668;SDS011;76101;44.794;10.344;2024-03-23T12:11:53;6.75;;;2.42;;
85668;SDS011;76101;44.794;10.344;2024-03-23T12:15:04;6.15;;;2.30;;
85668;SDS011;76101;44.794;10.344;2024-03-23T12:18:09;5.97;;;2.15;;
85668;SDS011;76101;44.794;10.344;2024-03-23T12:21:10;7.53;;;2.40;;
85668;SDS011;76101;44.794;10.344;2024-03-23T12:24:11;6.00;;;2.20;;
85668;SDS011;76101;44.794;10.344;2024-03-23T12:27:11;7.27;;;2.50;;
85668;SDS011;76101;44.794;10.344;2024-03-23T12:30:11;7.40;;;2.30;;
85668;SDS011;76101;44.794;10.344;2024-03-23T12:33:12;6.22;;;2.40;;
85668;SDS011;76101;44.794;10.344;2024-03-23T12:36:12;6.33;;;2.00;;
85668;SDS011;76101;44.794;10.344;2024-03-23T12:39:13;5.43;;;1.90;;
85668;SDS011;76101;44.794;10.344;2024-03-23T12:42:13;7.67;;;2.23;;
85668;SDS011;76101;44.794;10.344;2024-03-23T12:45:31;7.30;;;2.00;;
85668;SDS011;76101;44.794;10.344;2024-03-23T12:48:32;7.28;;;1.95;;
85668;SDS011;76101;44.794;10.344;2024-03-23T12:51:32;6.00;;;1.95;;
85668;SDS011;76101;44.794;10.344;2024-03-23T12:54:45;6.22;;;1.95;;
85668;SDS011;76101;44.794;10.344;2024-03-23T12:57:45;8.48;;;1.70;;
85668;SDS011;76101;44.794;10.344;2024-03-23T13:00:46;5.80;;;1.70;;
85668;SDS011;76101;44.794;10.344;2024-03-23T13:03:49;6.83;;;1.70;;
85668;SDS011;76101;44.794;10.344;2024-03-23T13:06:50;6.85;;;1.90;;
85668;SDS011;76101;44.794;10.344;2024-03-23T13:09:51;9.05;;;1.70;;
85668;SDS011;76101;44.794;10.344;2024-03-23T13:12:52;8.55;;;1.67;;
85668;SDS011;76101;44.794;10.344;2024-03-23T13:15:53;6.78;;;1.63;;
85668;SDS011;76101;44.794;10.344;2024-03-23T13:18:53;7.07;;;1.73;;
85668;SDS011;76101;44.794;10.344;2024-03-23T13:21:54;5.47;;;1.70;;
85668;SDS011;76101;44.794;10.344;2024-03-23T13:24:55;5.85;;;1.48;;
85668;SDS011;76101;44.794;10.344;2024-03-23T13:27:55;4.93;;;1.40;;
85668;SDS011;76101;44.794;10.344;2024-03-23T13:30:56;5.55;;;1.50;;
85668;SDS011;76101;44.794;10.344;2024-03-23T13:33:57;7.10;;;1.65;;
85668;SDS011;76101;44.794;10.344;2024-03-23T13:36:58;5.82;;;1.80;;
85668;SDS011;76101;44.794;10.344;2024-03-23T13:39:58;6.53;;;1.60;;
85668;SDS011;76101;44.794;10.344;2024-03-23T13:46:31;5.90;;;1.60;;
85668;SDS011;76101;44.794;10.344;2024-03-23T13:53:50;9.32;;;1.55;;
85668;SDS011;76101;44.794;10.344;2024-03-23T13:56:50;7.78;;;1.75;;
85668;SDS011;76101;44.794;10.344;2024-03-23T13:59:51;11.98;;;1.83;;
85668;SDS011;76101;44.794;10.344;2024-03-23T14:02:51;6.03;;;1.50;;
85668;SDS011;76101;44.794;10.344;2024-03-23T14:05:52;7.67;;;1.50;;
85668;SDS011;76101;44.794;10.344;2024-03-23T14:12:10;6.70;;;1.50;;
85668;SDS011;76101;44.794;10.344;2024-03-23T14:15:10;11.43;;;1.70;;
85668;SDS011;76101;44.794;10.344;2024-03-23T14:18:13;6.95;;;1.70;;
85668;SDS011;76101;44.794;10.344;2024-03-23T14:21:13;8.10;;;1.70;;
85668;SDS011;76101;44.794;10.344;2024-03-23T14:24:14;6.55;;;1.85;;
85668;SDS011;76101;44.794;10.344;2024-03-23T14:27:14;6.90;;;1.90;;
85668;SDS011;76101;44.794;10.344;2024-03-23T14:30:15;7.47;;;1.80;;
85668;SDS011;76101;44.794;10.344;2024-03-23T14:33:15;7.32;;;1.90;;
85668;SDS011;76101;44.794;10.344;2024-03-23T14:36:22;9.25;;;1.88;;
85668;SDS011;76101;44.794;10.344;2024-03-23T14:39:23;6.10;;;1.60;;
85668;SDS011;76101;44.794;10.344;2024-03-23T14:42:23;8.77;;;1.90;;
85668;SDS011;76101;44.794;10.344;2024-03-23T14:45:24;7.97;;;2.17;;
85668;SDS011;76101;44.794;10.344;2024-03-23T14:48:24;7.57;;;1.60;;
85668;SDS011;76101;44.794;10.344;2024-03-23T14:51:25;6.30;;;1.60;;
85668;SDS011;76101;44.794;10.344;2024-03-23T14:54:25;8.47;;;2.30;;
85668;SDS011;76101;44.794;10.344;2024-03-23T14:57:25;5.88;;;1.40;;
85668;SDS011;76101;44.794;10.344;2024-03-23T15:00:29;10.65;;;1.58;;
85668;SDS011;76101;44.794;10.344;2024-03-23T15:03:30;7.55;;;1.60;;
85668;SDS011;76101;44.794;10.344;2024-03-23T15:06:30;5.68;;;1.52;;
85668;SDS011;76101;44.794;10.344;2024-03-23T15:09:30;9.03;;;1.50;;
85668;SDS011;76101;44.794;10.344;2024-03-23T15:12:32;9.02;;;1.70;;
85668;SDS011;76101;44.794;10.344;2024-03-23T15:15:41;6.68;;;1.27;;
85668;SDS011;76101;44.794;10.344;2024-03-23T15:18:45;6.75;;;1.30;;
85668;SDS011;76101;44.794;10.344;2024-03-23T15:21:46;8.32;;;1.30;;
85668;SDS011;76101;44.794;10.344;2024-03-23T15:25:04;5.68;;;1.45;;
85668;SDS011;76101;44.794;10.344;2024-03-23T15:28:07;5.90;;;1.35;;
85668;SDS011;76101;44.794;10.344;2024-03-23T15:31:10;4.57;;;1.20;;
85668;SDS011;76101;44.794;10.344;2024-03-23T15:34:11;6.80;;;1.20;;
85668;SDS011;76101;44.794;10.344;2024-03-23T15:37:11;5.57;;;1.10;;
85668;SDS011;76101;44.794;10.344;2024-03-23T15:40:11;7.70;;;1.53;;
85668;SDS011;76101;44.794;10.344;2024-03-23T15:43:13;7.90;;;1.35;;
85668;SDS011;76101;44.794;10.344;2024-03-23T15:46:13;6.00;;;1.30;;
85668;SDS011;76101;44.794;10.344;2024-03-23T15:49:15;5.88;;;1.80;;
85668;SDS011;76101;44.794;10.344;2024-03-23T15:52:15;5.23;;;1.50;;
85668;SDS011;76101;44.794;10.344;2024-03-23T15:55:18;7.10;;;1.63;;
85668;SDS011;76101;44.794;10.344;2024-03-23T15:58:21;7.03;;;1.60;;
85668;SDS011;76101;44.794;10.344;2024-03-23T16:01:24;5.75;;;1.90;;
85668;SDS011;76101;44.794;10.344;2024-03-23T16:04:25;6.10;;;1.67;;
85668;SDS011;76101;44.794;10.344;2024-03-23T16:07:25;7.60;;;1.80;;
85668;SDS011;76101;44.794;10.344;2024-03-23T16:10:26;7.25;;;1.90;;
85668;SDS011;76101;44.794;10.344;2024-03-23T16:14:00;6.05;;;1.70;;
85668;SDS011;76101;44.794;10.344;2024-03-23T16:16:53;9.10;;;2.05;;
85668;SDS011;76101;44.794;10.344;2024-03-23T16:19:53;7.40;;;2.03;;
85668;SDS011;76101;44.794;10.344;2024-03-23T16:22:54;8.27;;;1.90;;
85668;SDS011;76101;44.794;10.344;2024-03-23T16:25:54;9.97;;;2.00;;
85668;SDS011;76101;44.794;10.344;2024-03-23T16:28:56;8.43;;;2.00;;
85668;SDS011;76101;44.794;10.344;2024-03-23T17:43:36;7.93;;;2.40;;
85668;SDS011;76101;44.794;10.344;2024-03-23T17:46:37;7.47;;;2.80;;
85668;SDS011;76101;44.794;10.344;2024-03-23T17:49:37;5.65;;;2.30;;
85668;SDS011;76101;44.794;10.344;2024-03-23T17:52:47;7.43;;;2.50;;
85668;SDS011;76101;44.794;10.344;2024-03-23T17:55:52;7.85;;;2.90;;
85668;SDS011;76101;44.794;10.344;2024-03-23T17:58:58;6.83;;;2.53;;
85668;SDS011;76101;44.794;10.344;2024-03-23T18:06:02;9.00;;;2.50;;
85668;SDS011;76101;44.794;10.344;2024-03-23T18:09:06;7.32;;;2.60;;
85668;SDS011;76101;44.794;10.344;2024-03-23T18:12:10;7.35;;;2.50;;
85668;SDS011;76101;44.794;10.344;2024-03-23T18:15:13;8.07;;;2.40;;
85668;SDS011;76101;44.794;10.344;2024-03-23T18:18:14;8.02;;;2.50;;
85668;SDS011;76101;44.794;10.344;2024-03-23T18:21:17;9.47;;;2.90;;
85668;SDS011;76101;44.794;10.344;2024-03-23T18:24:18;7.32;;;2.63;;
85668;SDS011;76101;44.794;10.344;2024-03-23T18:27:19;5.80;;;2.33;;
85668;SDS011;76101;44.794;10.344;2024-03-23T18:30:19;6.97;;;2.57;;
85668;SDS011;76101;44.794;10.344;2024-03-23T18:33:20;6.80;;;2.70;;
85668;SDS011;76101;44.794;10.344;2024-03-23T18:36:23;7.97;;;2.57;;
85668;SDS011;76101;44.794;10.344;2024-03-23T18:56:27;7.43;;;2.65;;
85668;SDS011;76101;44.794;10.344;2024-03-23T18:59:31;7.43;;;2.70;;
85668;SDS011;76101;44.794;10.344;2024-03-23T19:02:32;10.67;;;3.93;;
85668;SDS011;76101;44.794;10.344;2024-03-23T19:19:07;9.30;;;3.00;;
85668;SDS011;76101;44.794;10.344;2024-03-23T19:22:08;9.25;;;3.28;;
85668;SDS011;76101;44.794;10.344;2024-03-23T19:25:10;9.85;;;3.10;;
85668;SDS011;76101;44.794;10.344;2024-03-23T19:28:11;9.13;;;3.23;;
85668;SDS011;76101;44.794;10.344;2024-03-23T19:31:11;15.07;;;2.70;;
85668;SDS011;76101;44.794;10.344;2024-03-23T19:34:11;11.60;;;3.30;;
85668;SDS011;76101;44.794;10.344;2024-03-23T19:37:12;10.38;;;3.45;;
85668;SDS011;76101;44.794;10.344;2024-03-23T19:40:12;10.40;;;3.40;;
85668;SDS011;76101;44.794;10.344;2024-03-23T19:43:13;8.77;;;3.28;;
85668;SDS011;76101;44.794;10.344;2024-03-23T19:46:14;8.50;;;3.47;;
85668;SDS011;76101;44.794;10.344;2024-03-23T19:49:15;11.82;;;3.50;;
85668;SDS011;76101;44.794;10.344;2024-03-23T19:52:15;13.02;;;3.75;;
85668;SDS011;76101;44.794;10.344;2024-03-23T19:55:16;9.10;;;3.72;;
85668;SDS011;76101;44.794;10.344;2024-03-23T19:58:16;10.98;;;3.40;;
85668;SDS011;76101;44.794;10.344;2024-03-23T20:01:17;11.57;;;3.63;;
85668;SDS011;76101;44.794;10.344;2024-03-23T20:08:11;11.20;;;3.72;;
85668;SDS011;76101;44.794;10.344;2024-03-23T20:11:12;10.98;;;3.30;;
85668;SDS011;76101;44.794;10.344;2024-03-23T20:14:12;11.25;;;3.60;;
85668;SDS011;76101;44.794;10.344;2024-03-23T20:17:13;12.07;;;3.50;;
85668;SDS011;76101;44.794;10.344;2024-03-23T20:20:14;10.70;;;3.65;;
85668;SDS011;76101;44.794;10.344;2024-03-23T20:23:15;10.38;;;3.33;;
85668;SDS011;76101;44.794;10.344;2024-03-23T20:26:16;9.23;;;3.10;;
85668;SDS011;76101;44.794;10.344;2024-03-23T20:29:17;11.05;;;3.80;;
85668;SDS011;76101;44.794;10.344;2024-03-23T20:32:18;10.93;;;3.70;;
85668;SDS011;76101;44.794;10.344;2024-03-23T20:35:19;10.77;;;3.38;;
85668;SDS011;76101;44.794;10.344;2024-03-23T20:38:20;10.65;;;3.10;;
85668;SDS011;76101;44.794;10.344;2024-03-23T20:52:05;12.73;;;3.80;;
85668;SDS011;76101;44.794;10.344;2024-03-23T20:55:18;12.25;;;3.45;;
85668;SDS011;76101;44.794;10.344;2024-03-23T21:08:23;10.30;;;3.70;;
85668;SDS011;76101;44.794;10.344;2024-03-23T21:11:24;10.82;;;3.85;;
85668;SDS011;76101;44.794;10.344;2024-03-23T21:14:24;9.20;;;3.30;;
85668;SDS011;76101;44.794;10.344;2024-03-23T21:17:26;11.02;;;3.60;;
85668;SDS011;76101;44.794;10.344;2024-03-23T21:23:36;13.98;;;3.53;;
85668;SDS011;76101;44.794;10.344;2024-03-23T21:26:37;11.10;;;4.10;;
85668;SDS011;76101;44.794;10.344;2024-03-23T21:35:58;10.10;;;3.25;;
85668;SDS011;76101;44.794;10.344;2024-03-23T21:38:59;11.60;;;3.75;;
85668;SDS011;76101;44.794;10.344;2024-03-23T21:42:09;11.88;;;4.07;;
85668;SDS011;76101;44.794;10.344;2024-03-23T21:45:09;9.93;;;3.53;;
85668;SDS011;76101;44.794;10.344;2024-03-23T22:02:39;9.23;;;3.05;;
85668;SDS011;76101;44.794;10.344;2024-03-23T22:05:39;13.85;;;4.20;;
85668;SDS011;76101;44.794;10.344;2024-03-23T22:08:40;12.23;;;3.83;;
85668;SDS011;76101;44.794;10.344;2024-03-23T22:11:40;11.63;;;4.27;;
85668;SDS011;76101;44.794;10.344;2024-03-23T22:14:40;11.23;;;3.90;;
85668;SDS011;76101;44.794;10.344;2024-03-23T22:17:41;8.48;;;3.20;;